createdAt,value
2019-04-25T00:00:01.991Z,99.99
2019-04-25T00:01:03.070Z,99.99
2019-04-25T00:02:01.841Z,99.99
2019-04-25T00:03:01.568Z,99.99
2019-04-25T00:04:02.079Z,99.99
2019-04-25T00:05:03.268Z,99.99
2019-04-25T00:06:02.429Z,99.99
2019-04-25T00:07:02.471Z,99.99
2019-04-25T00:08:02.693Z,99.99
2019-04-25T00:09:02.916Z,99.99
2019-04-25T00:10:03.142Z,99.99
2019-04-25T00:11:03.371Z,99.99
2019-04-25T00:12:03.593Z,99.99
2019-04-25T00:13:03.822Z,99.99
2019-04-25T00:14:04.043Z,99.99
2019-04-25T00:15:04.268Z,99.99
2019-04-25T00:16:04.494Z,99.99
2019-04-25T00:17:04.713Z,99.99
2019-04-25T00:18:04.942Z,99.99
2019-04-25T00:19:05.170Z,99.99
2019-04-25T00:20:05.388Z,99.99
2019-04-25T00:21:05.614Z,99.99
2019-04-25T00:22:05.851Z,99.99
2019-04-25T00:23:06.063Z,99.99
2019-04-25T00:24:06.284Z,99.99
2019-04-25T00:25:15.279Z,99.99
2019-04-25T00:26:06.734Z,99.99
2019-04-25T00:27:06.961Z,99.99
2019-04-25T00:28:07.186Z,99.99
2019-04-25T00:29:07.411Z,99.99
2019-04-25T00:30:07.635Z,99.99
2019-04-25T00:31:07.859Z,99.99
2019-04-25T00:32:08.084Z,99.99
2019-04-25T00:33:08.310Z,99.99
2019-04-25T00:34:08.533Z,99.99
2019-04-25T00:35:08.759Z,99.99
2019-04-25T00:36:08.981Z,99.99
2019-04-25T00:37:09.207Z,99.99
2019-04-25T00:38:09.426Z,99.99
2019-04-25T00:39:09.647Z,99.99
2019-04-25T00:40:09.873Z,99.99
2019-04-25T00:41:11.539Z,99.99
2019-04-25T00:42:12.101Z,99.99
2019-04-25T00:43:11.430Z,99.99
2019-04-25T00:44:12.144Z,99.99
2019-04-25T00:45:11.910Z,99.99
2019-04-25T00:46:11.461Z,99.99
2019-04-25T00:47:11.818Z,99.99
2019-04-25T00:48:12.231Z,99.99
2019-04-25T00:49:12.283Z,99.99
2019-04-25T00:50:12.121Z,99.99
2019-04-25T00:51:12.345Z,99.99
2019-04-25T00:52:12.572Z,99.99
2019-04-25T00:53:12.796Z,99.99
2019-04-25T00:54:13.021Z,99.99
2019-04-25T00:55:25.693Z,99.99
2019-04-25T00:56:13.470Z,99.99
2019-04-25T00:57:13.693Z,99.99
2019-04-25T00:58:13.919Z,99.99
2019-04-25T00:59:14.145Z,99.99
2019-04-25T01:00:14.370Z,99.99
2019-04-25T01:01:14.603Z,99.99
2019-04-25T01:02:14.819Z,99.99
2019-04-25T01:03:15.044Z,99.99
2019-04-25T01:04:15.268Z,99.99
2019-04-25T01:05:15.494Z,99.99
2019-04-25T01:06:15.717Z,99.99
2019-04-25T01:07:15.941Z,99.99
2019-04-25T01:08:16.168Z,99.99
2019-04-25T01:09:16.392Z,99.99
2019-04-25T01:10:16.612Z,99.99
2019-04-25T01:11:16.842Z,99.99
2019-04-25T01:12:17.065Z,99.99
2019-04-25T01:13:17.830Z,99.99
2019-04-25T01:14:17.554Z,99.99
2019-04-25T01:15:17.785Z,99.99
2019-04-25T01:16:18.004Z,99.99
2019-04-25T01:17:18.230Z,99.99
2019-04-25T01:18:18.458Z,99.99
2019-04-25T01:19:18.681Z,99.99
2019-04-25T01:20:18.905Z,99.99
2019-04-25T01:21:19.130Z,99.99
2019-04-25T01:22:19.357Z,99.99
2019-04-25T01:23:19.580Z,99.99
2019-04-25T01:24:19.804Z,99.99
2019-04-25T01:25:20.030Z,99.99
2019-04-25T01:26:20.270Z,99.99
2019-04-25T01:27:20.495Z,99.99
2019-04-25T01:28:20.720Z,99.99
2019-04-25T01:29:20.946Z,99.99
2019-04-25T01:30:21.182Z,99.99
2019-04-25T01:31:21.396Z,99.99
2019-04-25T01:32:21.637Z,99.99
2019-04-25T01:33:23.299Z,99.99
2019-04-25T01:34:22.069Z,99.99
2019-04-25T01:35:23.757Z,99.99
2019-04-25T01:36:23.254Z,99.99
2019-04-25T01:37:23.700Z,99.99
2019-04-25T01:38:23.841Z,99.99
2019-04-25T01:39:24.214Z,99.99
2019-04-25T01:40:23.644Z,99.99
2019-04-25T01:41:24.186Z,99.99
2019-04-25T01:42:23.874Z,99.99
2019-04-25T01:43:24.097Z,99.99
2019-04-25T01:44:24.323Z,99.99
2019-04-25T01:45:24.547Z,99.99
2019-04-25T01:46:24.772Z,99.99
2019-04-25T01:47:24.997Z,99.99
2019-04-25T01:48:25.222Z,99.99
2019-04-25T01:49:25.447Z,99.99
2019-04-25T01:50:25.673Z,99.99
2019-04-25T01:51:25.899Z,99.99
2019-04-25T01:52:26.121Z,99.99
2019-04-25T01:53:26.354Z,99.99
2019-04-25T01:54:26.570Z,99.99
2019-04-25T01:55:26.794Z,99.99
2019-04-25T01:56:27.018Z,99.99
2019-04-25T01:57:27.244Z,99.99
2019-04-25T01:58:27.466Z,99.99
2019-04-25T01:59:27.695Z,99.99
2019-04-25T02:00:27.921Z,99.99
2019-04-25T02:01:28.144Z,99.99
2019-04-25T02:02:28.367Z,99.99
2019-04-25T02:03:28.593Z,99.99
2019-04-25T02:04:28.816Z,99.99
2019-04-25T02:05:29.043Z,99.99
2019-04-25T02:06:29.267Z,99.99
2019-04-25T02:07:29.488Z,99.99
2019-04-25T02:08:29.711Z,99.99
2019-04-25T02:09:29.929Z,99.99
2019-04-25T02:10:30.155Z,99.99
2019-04-25T02:11:30.379Z,99.99
2019-04-25T02:12:30.603Z,99.99
2019-04-25T02:13:30.828Z,99.99
2019-04-25T02:14:31.054Z,99.99
2019-04-25T02:15:31.280Z,99.99
2019-04-25T02:16:31.505Z,99.99
2019-04-25T02:17:31.730Z,99.99
2019-04-25T02:18:33.511Z,99.99
2019-04-25T02:19:32.178Z,99.99
2019-04-25T02:20:33.928Z,99.99
2019-04-25T02:21:33.481Z,99.99
2019-04-25T02:22:33.918Z,99.99
2019-04-25T02:23:34.089Z,99.99
2019-04-25T02:24:33.899Z,99.99
2019-04-25T02:25:33.528Z,99.99
2019-04-25T02:26:34.117Z,99.99
2019-04-25T02:27:34.305Z,99.99
2019-04-25T02:28:34.204Z,99.99
2019-04-25T02:29:34.428Z,99.99
2019-04-25T02:30:35.605Z,99.99
2019-04-25T02:31:35.083Z,99.99
2019-04-25T02:32:37.121Z,99.99
2019-04-25T02:33:35.323Z,99.99
2019-04-25T02:34:35.546Z,99.99
2019-04-25T02:35:35.768Z,99.99
2019-04-25T02:36:36.021Z,99.99
2019-04-25T02:37:36.222Z,99.99
2019-04-25T02:38:36.448Z,99.99
2019-04-25T02:39:37.420Z,99.99
2019-04-25T02:40:36.890Z,99.99
2019-04-25T02:41:37.130Z,99.99
2019-04-25T02:42:37.341Z,99.99
2019-04-25T02:43:37.567Z,99.99
2019-04-25T02:44:37.795Z,99.99
2019-04-25T02:45:38.017Z,99.99
2019-04-25T02:46:38.241Z,99.99
2019-04-25T02:47:38.470Z,99.99
2019-04-25T02:48:38.692Z,99.99
2019-04-25T02:49:39.837Z,99.99
2019-04-25T02:50:39.142Z,99.99
2019-04-25T02:51:39.375Z,99.99
2019-04-25T02:52:39.594Z,99.99
2019-04-25T02:53:39.814Z,99.99
2019-04-25T02:54:40.041Z,99.99
2019-04-25T02:55:40.262Z,99.99
2019-04-25T02:56:40.499Z,99.99
2019-04-25T02:57:40.714Z,99.99
2019-04-25T02:58:40.942Z,99.99
2019-04-25T02:59:41.159Z,99.99
2019-04-25T03:00:54.921Z,99.99
2019-04-25T03:01:44.317Z,99.99
2019-04-25T03:02:41.837Z,99.99
2019-04-25T03:03:44.320Z,99.99
2019-04-25T03:04:44.471Z,99.99
2019-04-25T03:05:47.327Z,99.99
2019-04-25T03:06:44.939Z,99.99
2019-04-25T03:07:44.577Z,99.99
2019-04-25T03:08:44.852Z,99.99
2019-04-25T03:09:45.045Z,99.99
2019-04-25T03:10:44.374Z,99.99
2019-04-25T03:11:45.079Z,99.99
2019-04-25T03:12:44.665Z,99.99
2019-04-25T03:13:44.349Z,99.99
2019-04-25T03:14:44.837Z,99.99
2019-04-25T03:15:44.765Z,99.99
2019-04-25T03:16:45.096Z,99.99
2019-04-25T03:17:45.213Z,99.99
2019-04-25T03:18:45.445Z,99.99
2019-04-25T03:19:45.661Z,99.99
2019-04-25T03:20:45.885Z,99.99
2019-04-25T03:21:46.119Z,99.99
2019-04-25T03:22:46.335Z,99.99
2019-04-25T03:23:46.536Z,99.99
2019-04-25T03:24:46.753Z,99.99
2019-04-25T03:25:46.981Z,99.99
2019-04-25T03:26:47.206Z,99.99
2019-04-25T03:27:47.430Z,99.99
2019-04-25T03:28:47.655Z,99.99
2019-04-25T03:29:47.884Z,99.99
2019-04-25T03:30:48.105Z,99.99
2019-04-25T03:31:48.333Z,99.99
2019-04-25T03:32:51.524Z,99.99
2019-04-25T03:33:48.779Z,99.99
2019-04-25T03:34:49.003Z,99.99
2019-04-25T03:35:49.225Z,99.99
2019-04-25T03:36:49.454Z,99.99
2019-04-25T03:37:49.675Z,99.99
2019-04-25T03:38:49.901Z,99.99
2019-04-25T03:39:50.126Z,99.99
2019-04-25T03:40:50.350Z,99.99
2019-04-25T03:41:50.576Z,99.99
2019-04-25T03:42:50.799Z,99.99
2019-04-25T03:43:51.024Z,99.99
2019-04-25T03:44:51.251Z,99.99
2019-04-25T03:45:51.474Z,99.99
2019-04-25T03:46:51.701Z,99.99
2019-04-25T03:47:53.180Z,99.99
2019-04-25T03:48:53.851Z,99.99
2019-04-25T03:49:53.511Z,99.99
2019-04-25T03:50:53.967Z,99.99
2019-04-25T03:51:53.867Z,99.99
2019-04-25T03:52:54.048Z,99.99
2019-04-25T03:53:53.624Z,99.99
2019-04-25T03:54:53.540Z,99.99
2019-04-25T03:55:54.062Z,99.99
2019-04-25T03:56:56.138Z,99.99
2019-04-25T03:57:54.163Z,99.99
2019-04-25T03:58:54.382Z,99.99
2019-04-25T03:59:54.608Z,99.99
2019-04-25T04:00:54.832Z,99.99
2019-04-25T04:01:55.057Z,99.99
2019-04-25T04:02:55.449Z,99.99
2019-04-25T04:03:55.506Z,99.99
2019-04-25T04:04:55.730Z,99.99
2019-04-25T04:05:55.960Z,99.99
2019-04-25T04:06:56.186Z,99.99
2019-04-25T04:07:56.411Z,99.99
2019-04-25T04:08:56.635Z,99.99
2019-04-25T04:09:56.859Z,99.99
2019-04-25T04:10:57.082Z,99.99
2019-04-25T04:11:57.307Z,99.99
2019-04-25T04:12:57.531Z,99.99
2019-04-25T04:13:57.756Z,99.99
2019-04-25T04:14:57.979Z,99.99
2019-04-25T04:15:58.202Z,99.99
2019-04-25T04:16:58.428Z,99.99
2019-04-25T04:17:58.652Z,99.99
2019-04-25T04:18:58.875Z,99.99
2019-04-25T04:19:59.100Z,99.99
2019-04-25T04:20:59.321Z,99.99
2019-04-25T04:21:59.546Z,99.99
2019-04-25T04:22:59.770Z,99.99
2019-04-25T04:23:59.996Z,99.99
2019-04-25T04:25:00.219Z,99.99
2019-04-25T04:26:00.443Z,99.99
2019-04-25T04:27:03.676Z,99.99
2019-04-25T04:28:00.894Z,99.99
2019-04-25T04:29:01.117Z,99.99
2019-04-25T04:30:01.345Z,99.99
2019-04-25T04:31:01.570Z,99.99
2019-04-25T04:32:03.063Z,99.99
2019-04-25T04:33:03.505Z,99.99
2019-04-25T04:34:03.681Z,99.99
2019-04-25T04:35:03.504Z,99.99
2019-04-25T04:36:03.868Z,99.99
2019-04-25T04:37:03.746Z,99.99
2019-04-25T04:38:04.249Z,99.99
2019-04-25T04:39:03.897Z,99.99
2019-04-25T04:40:03.684Z,99.99
2019-04-25T04:41:04.002Z,99.99
2019-04-25T04:42:04.037Z,99.99
2019-04-25T04:43:04.467Z,99.99
2019-04-25T04:44:04.488Z,99.99
2019-04-25T04:45:04.715Z,99.99
2019-04-25T04:46:04.942Z,99.99
2019-04-25T04:47:05.168Z,99.99
2019-04-25T04:48:05.391Z,99.99
2019-04-25T04:49:05.619Z,99.99
2019-04-25T04:50:05.846Z,99.99
2019-04-25T04:51:06.071Z,99.99
2019-04-25T04:52:06.541Z,99.99
2019-04-25T04:53:06.522Z,99.99
2019-04-25T04:54:06.748Z,99.99
2019-04-25T04:55:09.737Z,99.99
2019-04-25T04:56:07.200Z,99.99
2019-04-25T04:57:18.415Z,99.99
2019-04-25T04:58:07.652Z,99.99
2019-04-25T04:59:07.874Z,98.03
2019-04-25T05:00:08.104Z,96.22
2019-04-25T05:01:08.329Z,94.13
2019-04-25T05:02:08.553Z,93.51
2019-04-25T05:03:08.790Z,92.46
2019-04-25T05:04:09.011Z,90.55
2019-04-25T05:05:09.236Z,88.40
2019-04-25T05:06:09.461Z,87.40
2019-04-25T05:07:09.689Z,89.12
2019-04-25T05:08:10.231Z,88.69
2019-04-25T05:09:10.145Z,87.74
2019-04-25T05:10:10.458Z,85.39
2019-04-25T05:11:12.294Z,83.29
2019-04-25T05:12:11.534Z,82.53
2019-04-25T05:13:11.371Z,82.91
2019-04-25T05:14:11.874Z,82.72
2019-04-25T05:15:12.568Z,81.96
2019-04-25T05:16:12.554Z,82.15
2019-04-25T05:17:12.234Z,83.48
2019-04-25T05:18:12.703Z,82.24
2019-04-25T05:19:14.657Z,81.33
2019-04-25T05:20:13.313Z,80.61
2019-04-25T05:21:14.843Z,79.56
2019-04-25T05:22:14.806Z,77.50
2019-04-25T05:23:14.820Z,76.82
2019-04-25T05:24:16.026Z,75.81
2019-04-25T05:25:16.218Z,75.05
2019-04-25T05:26:15.983Z,74.09
2019-04-25T05:27:16.674Z,73.23
2019-04-25T05:28:16.193Z,73.23
2019-04-25T05:29:19.833Z,73.36
2019-04-25T05:30:16.608Z,72.69
2019-04-25T05:31:16.751Z,71.58
2019-04-25T05:32:15.894Z,69.67
2019-04-25T05:33:18.651Z,69.60
2019-04-25T05:34:17.174Z,68.17
2019-04-25T05:35:16.371Z,67.37
2019-04-25T05:36:17.586Z,68.27
2019-04-25T05:37:17.516Z,66.71
2019-04-25T05:38:17.602Z,65.17
2019-04-25T05:39:18.097Z,65.01
2019-04-25T05:40:18.231Z,65.26
2019-04-25T05:41:18.185Z,65.26
2019-04-25T05:42:18.516Z,65.46
2019-04-25T05:43:18.372Z,64.15
2019-04-25T05:44:18.746Z,63.12
2019-04-25T05:45:19.087Z,61.88
2019-04-25T05:46:19.035Z,62.01
2019-04-25T05:47:20.510Z,60.57
2019-04-25T05:48:19.069Z,59.61
2019-04-25T05:49:19.315Z,60.18
2019-04-25T05:50:19.934Z,59.92
2019-04-25T05:51:19.763Z,58.39
2019-04-25T05:52:19.996Z,58.20
2019-04-25T05:53:20.227Z,58.64
2019-04-25T05:54:20.613Z,60.15
2019-04-25T05:55:21.125Z,60.28
2019-04-25T05:56:20.923Z,60.28
2019-04-25T05:57:21.750Z,58.64
2019-04-25T05:58:22.411Z,59.73
2019-04-25T05:59:21.895Z,58.74
2019-04-25T06:00:22.739Z,60.21
2019-04-25T06:01:22.841Z,58.42
2019-04-25T06:02:24.467Z,57.17
2019-04-25T06:03:24.864Z,56.40
2019-04-25T06:04:24.625Z,57.62
2019-04-25T06:05:25.923Z,57.36
2019-04-25T06:06:24.489Z,57.00
2019-04-25T06:07:25.490Z,56.98
2019-04-25T06:08:25.446Z,56.88
2019-04-25T06:09:25.015Z,57.65
2019-04-25T06:10:25.671Z,56.26
2019-04-25T06:11:25.081Z,56.68
2019-04-25T06:12:25.930Z,56.55
2019-04-25T06:13:26.454Z,54.75
2019-04-25T06:14:26.025Z,55.37
2019-04-25T06:15:26.174Z,56.11
2019-04-25T06:16:27.030Z,56.59
2019-04-25T06:17:26.025Z,56.43
2019-04-25T06:18:26.072Z,56.04
2019-04-25T06:19:26.490Z,56.49
2019-04-25T06:20:26.541Z,57.52
2019-04-25T06:21:27.543Z,58.70
2019-04-25T06:22:27.012Z,56.55
2019-04-25T06:23:27.251Z,55.81
2019-04-25T06:24:27.486Z,53.78
2019-04-25T06:25:32.691Z,54.31
2019-04-25T06:26:35.144Z,55.78
2019-04-25T06:27:28.489Z,54.65
2019-04-25T06:28:28.420Z,53.59
2019-04-25T06:29:28.655Z,52.47
2019-04-25T06:30:29.630Z,53.50
2019-04-25T06:31:29.300Z,51.89
2019-04-25T06:32:29.357Z,52.25
2019-04-25T06:33:29.606Z,54.65
2019-04-25T06:34:31.668Z,54.72
2019-04-25T06:35:30.059Z,55.59
2019-04-25T06:36:30.295Z,55.49
2019-04-25T06:37:30.530Z,55.46
2019-04-25T06:38:31.677Z,56.55
2019-04-25T06:39:31.005Z,54.56
2019-04-25T06:40:31.235Z,54.46
2019-04-25T06:41:32.188Z,54.72
2019-04-25T06:42:31.705Z,54.63
2019-04-25T06:43:33.985Z,55.18
2019-04-25T06:44:32.990Z,54.94
2019-04-25T06:45:34.293Z,54.43
2019-04-25T06:46:33.872Z,54.63
2019-04-25T06:47:34.123Z,54.69
2019-04-25T06:48:33.878Z,55.59
2019-04-25T06:49:36.407Z,54.63
2019-04-25T06:50:34.197Z,54.99
2019-04-25T06:51:34.310Z,56.43
2019-04-25T06:52:35.390Z,55.44
2019-04-25T06:53:34.627Z,55.91
2019-04-25T06:54:35.240Z,56.30
2019-04-25T06:55:34.742Z,56.85
2019-04-25T06:56:34.975Z,58.45
2019-04-25T06:57:35.210Z,58.29
2019-04-25T06:58:35.443Z,58.20
2019-04-25T06:59:39.581Z,57.52
2019-04-25T07:00:41.162Z,58.20
2019-04-25T07:01:36.143Z,58.48
2019-04-25T07:02:36.375Z,57.81
2019-04-25T07:03:36.619Z,58.36
2019-04-25T07:04:36.844Z,59.51
2019-04-25T07:05:40.523Z,59.22
2019-04-25T07:06:37.304Z,58.64
2019-04-25T07:07:37.535Z,58.55
2019-04-25T07:08:37.768Z,59.41
2019-04-25T07:09:38.058Z,60.05
2019-04-25T07:10:38.230Z,61.37
2019-04-25T07:11:38.458Z,61.24
2019-04-25T07:12:38.690Z,61.94
2019-04-25T07:13:38.997Z,61.27
2019-04-25T07:14:39.171Z,60.89
2019-04-25T07:15:39.382Z,60.41
2019-04-25T07:16:39.613Z,60.99
2019-04-25T07:17:39.844Z,61.56
2019-04-25T07:18:40.073Z,60.50
2019-04-25T07:19:40.304Z,60.15
2019-04-25T07:20:40.533Z,60.05
2019-04-25T07:21:40.766Z,60.05
2019-04-25T07:22:40.994Z,61.69
2019-04-25T07:23:41.231Z,60.44
2019-04-25T07:24:41.456Z,60.50
2019-04-25T07:25:41.684Z,61.37
2019-04-25T07:26:41.913Z,60.60
2019-04-25T07:27:43.154Z,60.12
2019-04-25T07:28:43.914Z,60.12
2019-04-25T07:29:43.310Z,60.22
2019-04-25T07:30:49.914Z,60.22
2019-04-25T07:31:44.291Z,61.46
2019-04-25T07:32:43.977Z,60.03
2019-04-25T07:33:43.520Z,59.96
2019-04-25T07:34:43.932Z,60.63
2019-04-25T07:35:43.983Z,60.35
2019-04-25T07:36:45.634Z,61.30
2019-04-25T07:37:44.442Z,61.27
2019-04-25T07:38:44.671Z,60.72
2019-04-25T07:39:44.903Z,59.58
2019-04-25T07:40:45.130Z,59.67
2019-04-25T07:41:45.358Z,59.67
2019-04-25T07:42:45.586Z,59.58
2019-04-25T07:43:45.819Z,59.77
2019-04-25T07:44:51.669Z,59.67
2019-04-25T07:45:46.276Z,59.96
2019-04-25T07:46:46.503Z,60.05
2019-04-25T07:47:46.751Z,59.86
2019-04-25T07:48:46.964Z,60.15
2019-04-25T07:49:47.194Z,60.15
2019-04-25T07:50:47.422Z,60.38
2019-04-25T07:51:47.650Z,60.28
2019-04-25T07:52:47.878Z,59.99
2019-04-25T07:53:48.110Z,59.99
2019-04-25T07:54:48.338Z,61.11
2019-04-25T07:55:48.564Z,60.53
2019-04-25T07:56:48.793Z,60.47
2019-04-25T07:57:49.022Z,60.08
2019-04-25T07:58:52.564Z,59.89
2019-04-25T07:59:51.579Z,59.70
2019-04-25T08:00:49.713Z,59.51
2019-04-25T08:01:49.941Z,59.89
2019-04-25T08:02:50.170Z,59.70
2019-04-25T08:03:50.401Z,60.08
2019-04-25T08:04:50.645Z,59.32
2019-04-25T08:05:50.861Z,59.22
2019-04-25T08:06:51.090Z,59.70
2019-04-25T08:07:51.317Z,59.92
2019-04-25T08:08:51.546Z,59.92
2019-04-25T08:09:51.776Z,60.11
2019-04-25T08:10:53.503Z,59.92
2019-04-25T08:11:53.178Z,59.83
2019-04-25T08:12:53.605Z,59.73
2019-04-25T08:13:53.383Z,58.96
2019-04-25T08:14:54.220Z,58.87
2019-04-25T08:15:53.830Z,58.77
2019-04-25T08:16:53.788Z,58.96
2019-04-25T08:17:54.036Z,58.96
2019-04-25T08:18:54.026Z,59.06
2019-04-25T08:19:54.372Z,60.14
2019-04-25T08:20:54.294Z,59.76
2019-04-25T08:21:54.524Z,59.95
2019-04-25T08:22:58.854Z,59.57
2019-04-25T08:23:54.983Z,59.86
2019-04-25T08:24:55.253Z,58.61
2019-04-25T08:25:55.480Z,58.51
2019-04-25T08:26:55.710Z,59.38
2019-04-25T08:27:55.939Z,57.84
2019-04-25T08:28:57.834Z,59.86
2019-04-25T08:29:56.400Z,58.80
2019-04-25T08:30:56.627Z,58.32
2019-04-25T08:31:56.860Z,58.22
2019-04-25T08:32:57.089Z,58.51
2019-04-25T08:33:57.327Z,59.57
2019-04-25T08:34:57.557Z,59.95
2019-04-25T08:36:06.673Z,60.24
2019-04-25T08:36:58.019Z,60.37
2019-04-25T08:37:58.246Z,59.50
2019-04-25T08:38:58.472Z,57.68
2019-04-25T08:39:58.701Z,57.77
2019-04-25T08:40:58.929Z,58.42
2019-04-25T08:41:59.162Z,57.77
2019-04-25T08:42:59.389Z,57.77
2019-04-25T08:43:59.616Z,57.22
2019-04-25T08:44:59.844Z,57.10
2019-04-25T08:46:00.074Z,56.62
2019-04-25T08:47:00.298Z,56.91
2019-04-25T08:48:00.532Z,57.00
2019-04-25T08:49:02.275Z,58.64
2019-04-25T08:50:00.986Z,58.64
2019-04-25T08:51:01.218Z,57.48
2019-04-25T08:52:01.448Z,57.32
2019-04-25T08:53:01.677Z,57.42
2019-04-25T08:54:03.730Z,57.60
2019-04-25T08:55:02.138Z,57.13
2019-04-25T08:56:03.805Z,57.03
2019-04-25T08:57:04.179Z,56.84
2019-04-25T08:58:03.695Z,56.45
2019-04-25T08:59:06.182Z,56.74
2019-04-25T09:00:04.241Z,56.45
2019-04-25T09:01:04.081Z,56.84
2019-04-25T09:02:03.741Z,57.22
2019-04-25T09:03:05.889Z,57.06
2019-04-25T09:04:05.155Z,55.81
2019-04-25T09:05:04.432Z,54.85
2019-04-25T09:06:04.662Z,54.46
2019-04-25T09:07:05.460Z,53.88
2019-04-25T09:08:05.121Z,54.17
2019-04-25T09:09:07.167Z,53.78
2019-04-25T09:10:05.582Z,54.27
2019-04-25T09:11:05.816Z,54.17
2019-04-25T09:12:06.042Z,53.88
2019-04-25T09:13:06.273Z,54.17
2019-04-25T09:14:06.505Z,54.46
2019-04-25T09:15:06.732Z,54.94
2019-04-25T09:16:06.965Z,53.59
2019-04-25T09:17:07.201Z,54.08
2019-04-25T09:18:07.429Z,53.91
2019-04-25T09:19:07.656Z,53.23
2019-04-25T09:20:07.885Z,52.27
2019-04-25T09:21:08.114Z,52.01
2019-04-25T09:22:08.346Z,51.62
2019-04-25T09:23:08.578Z,50.95
2019-04-25T09:24:08.806Z,50.35
2019-04-25T09:25:09.033Z,51.41
2019-04-25T09:26:09.270Z,52.11
2019-04-25T09:27:09.492Z,51.79
2019-04-25T09:28:09.728Z,50.76
2019-04-25T09:29:17.577Z,50.66
2019-04-25T09:30:10.188Z,51.43
2019-04-25T09:31:10.423Z,50.57
2019-04-25T09:32:10.650Z,50.85
2019-04-25T09:33:10.882Z,50.57
2019-04-25T09:34:11.116Z,50.18
2019-04-25T09:35:11.344Z,49.53
2019-04-25T09:36:11.574Z,48.76
2019-04-25T09:37:11.805Z,50.47
2019-04-25T09:38:13.281Z,48.44
2019-04-25T09:39:13.591Z,48.16
2019-04-25T09:40:13.872Z,47.87
2019-04-25T09:41:15.056Z,47.97
2019-04-25T09:42:14.207Z,48.54
2019-04-25T09:43:13.646Z,49.02
2019-04-25T09:44:14.425Z,48.66
2019-04-25T09:45:15.245Z,49.34
2019-04-25T09:46:13.889Z,47.80
2019-04-25T09:47:14.120Z,48.08
2019-04-25T09:48:14.359Z,49.63
2019-04-25T09:49:14.580Z,47.80
2019-04-25T09:50:14.811Z,47.80
2019-04-25T09:51:15.044Z,47.99
2019-04-25T09:52:15.272Z,47.72
2019-04-25T09:53:21.938Z,48.21
2019-04-25T09:54:15.736Z,47.92
2019-04-25T09:55:15.970Z,46.86
2019-04-25T09:56:16.200Z,46.76
2019-04-25T09:57:16.435Z,47.34
2019-04-25T09:58:16.673Z,48.21
2019-04-25T09:59:26.847Z,47.14
2019-04-25T10:00:17.127Z,46.59
2019-04-25T10:01:17.358Z,46.37
2019-04-25T10:02:17.591Z,46.76
2019-04-25T10:03:17.823Z,46.47
2019-04-25T10:04:18.057Z,45.70
2019-04-25T10:05:18.287Z,46.08
2019-04-25T10:06:18.517Z,46.49
2019-04-25T10:07:18.756Z,46.40
2019-04-25T10:08:18.980Z,46.30
2019-04-25T10:09:19.210Z,46.20
2019-04-25T10:10:19.442Z,45.84
2019-04-25T10:11:19.674Z,45.53
2019-04-25T10:12:19.904Z,44.78
2019-04-25T10:13:20.133Z,44.59
2019-04-25T10:14:20.364Z,45.45
2019-04-25T10:15:20.599Z,45.07
2019-04-25T10:16:20.830Z,44.78
2019-04-25T10:17:21.059Z,45.17
2019-04-25T10:18:21.290Z,45.45
2019-04-25T10:19:21.522Z,45.84
2019-04-25T10:20:23.111Z,44.87
2019-04-25T10:21:21.981Z,43.72
2019-04-25T10:22:23.610Z,44.42
2019-04-25T10:23:23.975Z,43.81
2019-04-25T10:24:22.678Z,43.91
2019-04-25T10:25:23.443Z,43.14
2019-04-25T10:26:23.146Z,43.14
2019-04-25T10:27:24.197Z,43.62
2019-04-25T10:28:23.609Z,43.62
2019-04-25T10:29:23.841Z,44.01
2019-04-25T10:30:25.907Z,44.10
2019-04-25T10:31:24.308Z,44.29
2019-04-25T10:32:24.541Z,43.54
2019-04-25T10:33:24.776Z,43.54
2019-04-25T10:34:25.005Z,43.54
2019-04-25T10:35:25.237Z,42.77
2019-04-25T10:36:25.474Z,42.10
2019-04-25T10:37:25.715Z,41.71
2019-04-25T10:38:25.937Z,41.52
2019-04-25T10:39:26.255Z,41.91
2019-04-25T10:40:26.415Z,42.39
2019-04-25T10:41:26.630Z,42.70
2019-04-25T10:42:26.863Z,43.08
2019-04-25T10:43:27.095Z,42.41
2019-04-25T10:44:27.327Z,42.99
2019-04-25T10:45:27.561Z,42.72
2019-04-25T10:46:27.796Z,41.66
2019-04-25T10:47:28.028Z,42.14
2019-04-25T10:48:28.262Z,41.87
2019-04-25T10:49:28.494Z,41.97
2019-04-25T10:50:28.727Z,41.36
2019-04-25T10:51:28.961Z,40.42
2019-04-25T10:52:29.193Z,41.75
2019-04-25T10:53:29.427Z,40.98
2019-04-25T10:54:29.658Z,41.17
2019-04-25T10:55:29.893Z,41.17
2019-04-25T10:56:30.124Z,41.75
2019-04-25T10:57:30.356Z,41.36
2019-04-25T10:58:30.588Z,41.36
2019-04-25T10:59:30.823Z,40.40
2019-04-25T11:00:31.056Z,40.20
2019-04-25T11:01:31.293Z,40.20
2019-04-25T11:02:31.520Z,39.92
2019-04-25T11:03:33.324Z,39.94
2019-04-25T11:04:31.991Z,39.43
2019-04-25T11:05:32.222Z,39.14
2019-04-25T11:06:33.666Z,39.62
2019-04-25T11:07:33.965Z,39.94
2019-04-25T11:08:34.097Z,41.09
2019-04-25T11:09:34.258Z,40.13
2019-04-25T11:10:34.367Z,39.16
2019-04-25T11:11:34.122Z,39.84
2019-04-25T11:12:33.943Z,38.79
2019-04-25T11:13:35.484Z,38.68
2019-04-25T11:14:34.377Z,39.26
2019-04-25T11:15:34.579Z,39.26
2019-04-25T11:16:34.814Z,39.37
2019-04-25T11:17:35.047Z,38.50
2019-04-25T11:18:35.281Z,39.18
2019-04-25T11:19:37.270Z,38.89
2019-04-25T11:20:35.751Z,38.50
2019-04-25T11:21:35.979Z,37.75
2019-04-25T11:22:36.212Z,37.55
2019-04-25T11:23:36.453Z,37.26
2019-04-25T11:24:36.681Z,36.88
2019-04-25T11:25:36.914Z,37.28
2019-04-25T11:26:37.146Z,38.25
2019-04-25T11:27:37.383Z,37.40
2019-04-25T11:28:37.616Z,37.11
2019-04-25T11:29:37.848Z,37.30
2019-04-25T11:30:38.085Z,36.43
2019-04-25T11:31:38.318Z,35.86
2019-04-25T11:32:38.550Z,36.16
2019-04-25T11:33:38.783Z,35.48
2019-04-25T11:34:39.031Z,35.48
2019-04-25T11:35:39.281Z,36.16
2019-04-25T11:36:39.504Z,35.67
2019-04-25T11:37:39.734Z,35.77
2019-04-25T11:38:39.967Z,36.64
2019-04-25T11:39:40.203Z,36.91
2019-04-25T11:40:40.438Z,37.41
2019-04-25T11:41:40.671Z,36.35
2019-04-25T11:42:41.843Z,36.16
2019-04-25T11:43:43.483Z,36.44
2019-04-25T11:44:41.374Z,36.74
2019-04-25T11:45:41.674Z,36.06
2019-04-25T11:46:43.453Z,36.04
2019-04-25T11:47:43.367Z,36.43
2019-04-25T11:48:44.205Z,36.33
2019-04-25T11:49:44.797Z,36.04
2019-04-25T11:50:44.327Z,35.96
2019-04-25T11:51:44.753Z,35.96
2019-04-25T11:52:43.736Z,36.44
2019-04-25T11:53:45.049Z,36.33
2019-04-25T11:54:45.730Z,36.74
2019-04-25T11:55:44.830Z,36.44
2019-04-25T11:56:45.775Z,36.43
2019-04-25T11:57:48.682Z,36.33
2019-04-25T11:58:45.621Z,36.25
2019-04-25T11:59:47.936Z,36.35
2019-04-25T12:00:45.993Z,36.44
2019-04-25T12:01:46.734Z,36.16
2019-04-25T12:02:45.599Z,36.06
2019-04-25T12:03:47.934Z,36.54
2019-04-25T12:04:46.864Z,35.96
2019-04-25T12:05:48.167Z,35.96
2019-04-25T12:06:47.572Z,36.06
2019-04-25T12:07:46.793Z,36.14
2019-04-25T12:08:47.716Z,36.25
2019-04-25T12:09:48.132Z,35.27
2019-04-25T12:10:47.892Z,36.04
2019-04-25T12:11:48.525Z,35.94
2019-04-25T12:12:48.031Z,35.85
2019-04-25T12:13:48.199Z,35.94
2019-04-25T12:14:49.523Z,36.04
2019-04-25T12:15:49.777Z,36.24
2019-04-25T12:16:51.428Z,36.72
2019-04-25T12:17:49.546Z,36.33
2019-04-25T12:18:50.628Z,36.43
2019-04-25T12:19:49.621Z,36.91
2019-04-25T12:20:49.845Z,37.21
2019-04-25T12:21:50.269Z,37.01
2019-04-25T12:22:58.040Z,38.17
2019-04-25T12:23:50.762Z,37.30
2019-04-25T12:24:50.783Z,38.07
2019-04-25T12:25:51.931Z,38.58
2019-04-25T12:26:51.251Z,38.09
2019-04-25T12:27:51.486Z,37.73
2019-04-25T12:28:51.722Z,38.02
2019-04-25T12:29:52.448Z,36.44
2019-04-25T12:30:53.448Z,36.44
2019-04-25T12:31:54.612Z,36.04
2019-04-25T12:32:53.893Z,36.72
2019-04-25T12:33:54.840Z,36.82
2019-04-25T12:34:53.693Z,36.72
2019-04-25T12:35:54.171Z,36.72
2019-04-25T12:36:54.485Z,36.99
2019-04-25T12:37:55.167Z,37.09
2019-04-25T12:38:54.595Z,37.17
2019-04-25T12:39:54.314Z,36.90
2019-04-25T12:40:55.324Z,37.28
2019-04-25T12:41:56.052Z,37.96
2019-04-25T12:42:55.024Z,37.09
2019-04-25T12:43:55.466Z,37.48
2019-04-25T12:44:56.134Z,38.06
2019-04-25T12:45:56.160Z,39.51
2019-04-25T12:46:56.879Z,38.37
2019-04-25T12:47:57.997Z,37.79
2019-04-25T12:48:56.430Z,37.79
2019-04-25T12:49:56.664Z,38.37
2019-04-25T12:50:56.900Z,37.69
2019-04-25T12:51:57.136Z,37.49
2019-04-25T12:52:58.128Z,37.49
2019-04-25T12:53:58.033Z,39.14
2019-04-25T12:54:58.160Z,38.27